Time;durP1;ratioP1;P1;durP2;ratioP2;P2;SDS_P1;SDS_P2;PMS_P1;PMS_P2;Temp;Humidity;BMP_temperature;BMP_pressure;BME280_temperature;BME280_humidity;BME280_pressure;Samples;Min_cycle;Max_cycle;Signal;HPM_P1;HPM_P2
2023/07/01 00:00:40;;;;;;;4.72;1.73;;;22.60;58.30;;;;;;3974458;29;20061;-50
2023/07/01 00:03:23;;;;;;;5.95;2.28;;;22.60;58.50;;;;;;3985040;29;20818;-49
2023/07/01 00:06:04;;;;;;;5.07;1.90;;;22.60;58.50;;;;;;3995922;29;20053;-53
2023/07/01 00:08:47;;;;;;;3.13;1.85;;;22.60;59.00;;;;;;4000426;29;20053;-49
2023/07/01 00:11:29;;;;;;;3.47;1.85;;;22.60;58.30;;;;;;4000272;29;20064;-53
2023/07/01 00:14:09;;;;;;;3.15;2.08;;;22.60;58.40;;;;;;3999342;29;20114;-46
2023/07/01 00:16:50;;;;;;;6.07;2.20;;;22.60;58.40;;;;;;3970210;29;20058;-48
2023/07/01 00:19:31;;;;;;;3.00;1.95;;;22.60;58.40;;;;;;3970834;29;20073;-46
2023/07/01 00:22:12;;;;;;;5.07;2.10;;;22.60;58.40;;;;;;3970651;29;20407;-46
2023/07/01 00:24:55;;;;;;;5.03;2.10;;;22.60;58.20;;;;;;3970586;29;20077;-45
2023/07/01 00:27:36;;;;;;;5.35;1.90;;;22.50;58.20;;;;;;3983414;29;20504;-46
2023/07/01 00:30:17;;;;;;;4.22;1.92;;;22.50;58.30;;;;;;4000405;29;20079;-49
2023/07/01 00:32:58;;;;;;;8.93;2.30;;;22.50;58.40;;;;;;4000274;29;20167;-48
2023/07/01 00:35:38;;;;;;;4.18;1.98;;;22.50;58.20;;;;;;4000642;29;20488;-46
2023/07/01 00:38:20;;;;;;;4.45;2.08;;;22.50;58.20;;;;;;4002133;29;20076;-46
2023/07/01 00:41:02;;;;;;;6.75;1.88;;;22.50;58.60;;;;;;3976281;29;20085;-46
2023/07/01 00:43:42;;;;;;;4.53;1.88;;;22.50;58.50;;;;;;3994052;29;20060;-46
2023/07/01 00:46:24;;;;;;;;;;;22.50;58.50;;;;;;3992476;29;20057;-46
2023/07/01 00:49:05;;;;;;;4.18;1.90;;;22.50;58.60;;;;;;4003057;29;19935;-45
2023/07/01 00:51:46;;;;;;;4.35;1.92;;;22.50;58.80;;;;;;3993283;29;20077;-46
2023/07/01 00:54:28;;;;;;;5.40;2.10;;;22.50;59.00;;;;;;4001676;29;20060;-46
2023/07/01 00:57:10;;;;;;;4.82;2.13;;;22.50;58.70;;;;;;4003171;29;20137;-49
2023/07/01 00:59:51;;;;;;;3.42;1.90;;;22.40;58.70;;;;;;3995086;29;20410;-50
2023/07/01 01:02:45;;;;;;;5.68;2.20;;;22.50;58.80;;;;;;3996867;29;20467;-50
2023/07/01 01:05:33;;;;;;;5.07;1.88;;;22.40;58.70;;;;;;3987438;29;20052;-47
2023/07/01 01:08:22;;;;;;;3.08;1.77;;;22.50;58.80;;;;;;3973116;29;20058;-50
2023/07/01 01:11:05;;;;;;;5.50;1.95;;;22.40;58.70;;;;;;3973230;29;20065;-50
2023/07/01 01:13:49;;;;;;;6.25;2.00;;;22.40;58.60;;;;;;3994319;29;20143;-50
2023/07/01 01:16:31;;;;;;;5.13;1.70;;;22.40;58.70;;;;;;3997208;29;20069;-50
2023/07/01 01:19:21;;;;;;;4.38;2.08;;;22.40;58.70;;;;;;3996387;29;20069;-48
2023/07/01 01:22:22;;;;;;;4.00;2.00;;;22.40;58.80;;;;;;3988726;29;20192;-49
2023/07/01 01:25:07;;;;;;;7.53;2.05;;;22.40;58.80;;;;;;3972938;29;20062;-46
2023/07/01 01:27:49;;;;;;;6.95;1.92;;;22.40;58.90;;;;;;3973202;29;20054;-47
2023/07/01 01:30:32;;;;;;;4.60;2.10;;;22.40;58.80;;;;;;3973163;29;20066;-47
2023/07/01 01:33:13;;;;;;;4.88;2.08;;;22.40;59.00;;;;;;3993611;29;20058;-48
2023/07/01 01:35:59;;;;;;;4.93;1.98;;;22.30;59.00;;;;;;3987867;29;20076;-49
2023/07/01 01:38:42;;;;;;;6.80;2.20;;;22.40;59.10;;;;;;3987957;29;20044;-45
2023/07/01 01:41:28;;;;;;;4.45;1.95;;;22.40;59.70;;;;;;3987737;29;20446;-49
2023/07/01 01:44:19;;;;;;;6.20;2.22;;;22.30;59.10;;;;;;3997498;29;20056;-48
2023/07/01 01:47:01;;;;;;;7.75;2.00;;;22.30;59.10;;;;;;3997958;29;20175;-45
2023/07/01 01:49:43;;;;;;;6.13;2.03;;;22.40;59.20;;;;;;4002778;29;20067;-44
2023/07/01 01:52:25;;;;;;;5.30;2.08;;;22.30;59.20;;;;;;4002842;29;20489;-45
2023/07/01 01:55:08;;;;;;;;;;;22.30;59.40;;;;;;3999454;29;20061;-45
2023/07/01 01:57:49;;;;;;;7.90;2.28;;;22.40;59.60;;;;;;3987846;29;19932;-45
2023/07/01 02:00:33;;;;;;;6.72;2.45;;;22.30;59.70;;;;;;3997167;29;20066;-46
2023/07/01 02:03:15;;;;;;;3.47;2.28;;;22.30;59.90;;;;;;3999305;29;20141;-44
2023/07/01 02:05:56;;;;;;;;;;;22.30;59.90;;;;;;3987988;29;20060;-45
2023/07/01 02:08:36;;;;;;;5.45;2.60;;;22.30;60.10;;;;;;3987432;29;19932;-46
2023/07/01 02:11:17;;;;;;;4.65;2.67;;;22.20;60.40;;;;;;3999107;29;20133;-46
2023/07/01 02:13:58;;;;;;;6.35;2.75;;;22.20;60.90;;;;;;3971549;29;20061;-46
2023/07/01 02:16:41;;;;;;;5.72;3.20;;;22.20;61.10;;;;;;3981827;29;20105;-46
2023/07/01 02:19:22;;;;;;;6.00;2.85;;;22.20;61.50;;;;;;3981568;29;20058;-46
2023/07/01 02:22:03;;;;;;;3.13;2.50;;;22.20;62.00;;;;;;3972309;29;20058;-46
2023/07/01 02:24:44;;;;;;;;;;;22.20;62.20;;;;;;3982382;29;20057;-46
2023/07/01 02:27:25;;;;;;;7.45;3.08;;;22.20;62.30;;;;;;3996511;29;20305;-45
2023/07/01 02:30:08;;;;;;;4.93;2.47;;;22.10;62.50;;;;;;3992849;29;20199;-47
2023/07/01 02:32:50;;;;;;;6.40;2.90;;;22.10;62.80;;;;;;3988843;29;20154;-47
2023/07/01 02:35:31;;;;;;;3.38;2.35;;;22.10;63.00;;;;;;3996476;29;20052;-45
2023/07/01 02:38:13;;;;;;;3.42;2.60;;;22.10;63.20;;;;;;3987051;29;20057;-49
2023/07/01 02:40:55;;;;;;;3.13;2.78;;;22.10;63.30;;;;;;3987250;29;20061;-47
2023/07/01 02:43:36;;;;;;;6.43;2.55;;;22.20;63.50;;;;;;4002602;29;20061;-47
2023/07/01 02:46:17;;;;;;;;;;;22.20;63.60;;;;;;4002539;29;20194;-45
2023/07/01 02:48:59;;;;;;;6.45;2.63;;;22.10;63.40;;;;;;3990035;29;19936;-46
2023/07/01 02:51:41;;;;;;;6.68;2.75;;;22.10;63.40;;;;;;3996119;29;20069;-46
2023/07/01 02:54:22;;;;;;;4.22;2.88;;;22.10;63.60;;;;;;3987056;29;20506;-45
2023/07/01 02:57:03;;;;;;;4.80;3.03;;;22.10;63.70;;;;;;3987100;29;20045;-44
2023/07/01 02:59:46;;;;;;;3.30;2.80;;;22.10;63.90;;;;;;3986471;29;20061;-44
2023/07/01 03:02:26;;;;;;;5.20;3.20;;;22.10;63.90;;;;;;3995997;29;20061;-47
2023/07/01 03:05:10;;;;;;;;;;;22.10;63.90;;;;;;3987339;29;20149;-48
2023/07/01 03:07:52;;;;;;;3.72;3.05;;;22.10;63.90;;;;;;3986539;29;19935;-45
2023/07/01 03:10:32;;;;;;;;;;;22.10;64.70;;;;;;3997636;29;20053;-45
2023/07/01 03:13:15;;;;;;;6.40;3.03;;;22.10;63.90;;;;;;3985855;29;19972;-45
2023/07/01 03:15:56;;;;;;;6.18;3.05;;;22.00;63.80;;;;;;3986636;29;20486;-45
2023/07/01 03:18:38;;;;;;;5.40;3.00;;;22.00;64.80;;;;;;3986183;29;20072;-50
2023/07/01 03:21:20;;;;;;;5.45;3.30;;;22.00;64.10;;;;;;3996003;29;20533;-45
2023/07/01 03:24:01;;;;;;;5.45;3.17;;;22.00;64.20;;;;;;4008209;29;20414;-46
2023/07/01 03:26:43;;;;;;;9.90;2.85;;;22.00;64.20;;;;;;4001602;29;20418;-47
2023/07/01 03:29:24;;;;;;;3.70;3.15;;;22.00;64.90;;;;;;4001209;29;20497;-45
2023/07/01 03:32:05;;;;;;;7.00;3.22;;;22.00;64.30;;;;;;3971218;29;20062;-45
2023/07/01 03:34:47;;;;;;;7.28;3.35;;;22.00;64.30;;;;;;3971519;29;20134;-47
2023/07/01 03:37:29;;;;;;;5.38;2.85;;;22.00;64.30;;;;;;3972194;29;20062;-45
2023/07/01 03:40:11;;;;;;;8.20;3.20;;;22.00;64.30;;;;;;3985533;29;20061;-45
2023/07/01 03:42:52;;;;;;;3.92;2.40;;;22.00;64.40;;;;;;3986456;29;20134;-45
2023/07/01 03:45:33;;;;;;;7.38;3.25;;;22.00;64.40;;;;;;3995658;29;20061;-47
2023/07/01 03:48:14;;;;;;;;;;;22.00;64.50;;;;;;3986415;29;20061;-45
2023/07/01 03:50:56;;;;;;;3.67;3.17;;;21.90;64.30;;;;;;3986313;29;19939;-48
2023/07/01 03:53:38;;;;;;;6.18;3.03;;;22.00;64.60;;;;;;3986303;29;20071;-44
2023/07/01 03:56:18;;;;;;;6.95;3.22;;;21.90;64.50;;;;;;3971359;29;20772;-47
2023/07/01 03:58:59;;;;;;;7.50;3.17;;;21.90;64.60;;;;;;3985280;29;20061;-45
2023/07/01 04:01:41;;;;;;;4.55;2.80;;;21.90;64.60;;;;;;3985441;29;20065;-44
2023/07/01 04:04:22;;;;;;;5.00;3.10;;;21.90;64.70;;;;;;3984694;29;20058;-46
2023/07/01 04:07:05;;;;;;;6.63;2.85;;;21.90;64.70;;;;;;3985259;29;20600;-45
2023/07/01 04:09:47;;;;;;;6.13;3.15;;;21.90;64.80;;;;;;3987733;29;20057;-45
2023/07/01 04:12:29;;;;;;;7.13;2.78;;;21.90;65.00;;;;;;3987366;29;20065;-45
2023/07/01 04:15:10;;;;;;;4.40;3.20;;;21.90;65.00;;;;;;3988409;29;20439;-44
2023/07/01 04:17:54;;;;;;;6.57;3.03;;;21.90;65.20;;;;;;3988324;29;20061;-46
2023/07/01 04:20:35;;;;;;;2.80;2.47;;;21.90;65.30;;;;;;3978818;29;20573;-45
2023/07/01 04:23:15;;;;;;;4.10;2.70;;;21.90;66.30;;;;;;3973675;29;20519;-46
2023/07/01 04:25:58;;;;;;;5.72;3.00;;;21.90;65.60;;;;;;3973590;29;20184;-45
2023/07/01 04:28:38;;;;;;;2.70;2.50;;;21.90;65.60;;;;;;3991139;29;20447;-46
2023/07/01 04:31:19;;;;;;;7.15;3.00;;;21.90;65.60;;;;;;4000586;29;20062;-44
2023/07/01 04:34:01;;;;;;;10.55;2.72;;;21.90;65.70;;;;;;3988084;29;20066;-45
2023/07/01 04:36:42;;;;;;;2.72;2.53;;;21.80;65.70;;;;;;3988151;29;20750;-45
2023/07/01 04:39:24;;;;;;;2.95;2.55;;;21.90;65.80;;;;;;3987925;29;20061;-45
2023/07/01 04:42:07;;;;;;;5.60;2.95;;;21.80;65.80;;;;;;3996421;29;20065;-45
2023/07/01 04:44:53;;;;;;;5.20;2.80;;;21.90;65.90;;;;;;3973376;29;20061;-46
2023/07/01 04:47:35;;;;;;;2.38;2.10;;;21.90;66.00;;;;;;3976477;29;20142;-46
2023/07/01 04:50:16;;;;;;;2.88;2.45;;;21.80;66.00;;;;;;3987766;29;20066;-46
2023/07/01 04:52:57;;;;;;;;;;;21.90;66.30;;;;;;3973163;29;20140;-54
2023/07/01 04:55:38;;;;;;;5.50;2.72;;;21.90;66.20;;;;;;3973044;29;19932;-44
2023/07/01 04:58:20;;;;;;;4.35;2.40;;;21.80;66.30;;;;;;3990785;29;20826;-48
2023/07/01 05:01:01;;;;;;;2.95;2.50;;;21.80;66.50;;;;;;3987674;29;20053;-45
2023/07/01 05:03:42;;;;;;;2.97;2.58;;;21.80;66.70;;;;;;3988326;29;20188;-46
2023/07/01 05:06:23;;;;;;;5.65;3.17;;;21.80;66.90;;;;;;3987907;29;20052;-46
2023/07/01 05:09:04;;;;;;;5.75;3.35;;;21.80;67.20;;;;;;3982527;29;20057;-45
2023/07/01 05:11:45;;;;;;;2.67;2.45;;;21.80;67.40;;;;;;3987820;29;20400;-47
2023/07/01 05:14:28;;;;;;;3.78;2.83;;;21.80;67.90;;;;;;3987915;29;20061;-47
2023/07/01 05:17:08;;;;;;;4.57;3.15;;;21.80;67.90;;;;;;3987641;29;20089;-46
2023/07/01 05:19:49;;;;;;;;;;;21.80;68.00;;;;;;3987918;29;20053;-47
2023/07/01 05:22:30;;;;;;;6.03;3.17;;;21.80;68.00;;;;;;3972755;29;19932;-47
2023/07/01 05:25:11;;;;;;;3.67;2.50;;;21.80;67.90;;;;;;3972653;29;20079;-47
2023/07/01 05:27:52;;;;;;;4.03;2.63;;;21.80;68.20;;;;;;3982398;29;20077;-49
2023/07/01 05:30:34;;;;;;;4.75;3.08;;;21.80;68.20;;;;;;3986815;29;20057;-47
2023/07/01 05:33:15;;;;;;;5.97;3.25;;;21.80;68.50;;;;;;3987575;29;20057;-47
2023/07/01 05:35:56;;;;;;;5.05;2.85;;;21.80;68.70;;;;;;3976984;29;20057;-46
2023/07/01 05:38:39;;;;;;;4.13;3.10;;;21.80;68.60;;;;;;3994376;29;20142;-46
2023/07/01 05:41:20;;;;;;;4.80;3.10;;;21.80;68.80;;;;;;3986925;29;20118;-48
2023/07/01 05:44:01;;;;;;;4.40;2.90;;;21.80;68.90;;;;;;3987229;29;20138;-50
2023/07/01 05:46:45;;;;;;;5.20;3.08;;;21.80;68.90;;;;;;3990460;29;20521;-47
2023/07/01 05:49:27;;;;;;;4.90;2.83;;;21.80;69.10;;;;;;3972108;29;20065;-48
2023/07/01 05:52:08;;;;;;;3.55;2.83;;;21.80;69.10;;;;;;3972258;29;20077;-48
2023/07/01 05:54:49;;;;;;;4.45;2.70;;;21.80;69.20;;;;;;3972431;29;20053;-52
2023/07/01 05:57:30;;;;;;;8.38;3.28;;;21.70;69.20;;;;;;3984430;29;20122;-51
2023/07/01 06:00:13;;;;;;;;;;;21.70;70.10;;;;;;3990255;29;20134;-51
2023/07/01 06:02:55;;;;;;;3.88;2.80;;;21.70;69.30;;;;;;4001653;29;19936;-49
2023/07/01 06:05:36;;;;;;;3.90;2.95;;;21.70;69.20;;;;;;4002013;29;20397;-54
2023/07/01 06:08:18;;;;;;;6.50;3.33;;;21.70;69.20;;;;;;3972278;29;20057;-53
2023/07/01 06:10:59;;;;;;;6.20;3.50;;;21.70;69.20;;;;;;3972243;29;20069;-49
2023/07/01 06:13:44;;;;;;;6.03;3.42;;;21.70;70.30;;;;;;3971840;29;20068;-53
2023/07/01 06:16:25;;;;;;;5.53;3.40;;;21.70;71.90;;;;;;3990678;29;20065;-47
2023/07/01 06:19:08;;;;;;;5.00;3.40;;;21.70;71.80;;;;;;3992983;29;20609;-50
2023/07/01 06:21:49;;;;;;;5.55;3.00;;;21.70;72.60;;;;;;3986716;29;20138;-50
2023/07/01 06:24:30;;;;;;;6.80;3.45;;;21.70;72.20;;;;;;3986671;29;20069;-54
2023/07/01 06:27:11;;;;;;;4.72;2.80;;;21.70;71.50;;;;;;3990727;29;20183;-53
2023/07/01 06:29:52;;;;;;;5.30;2.95;;;21.70;71.20;;;;;;3975605;29;20066;-53
2023/07/01 06:32:32;;;;;;;5.55;3.15;;;21.80;71.00;;;;;;3986755;29;20422;-51
2023/07/01 06:35:15;;;;;;;3.53;2.97;;;21.80;70.80;;;;;;3985736;29;20061;-49
2023/07/01 06:37:55;;;;;;;3.90;3.00;;;21.70;70.70;;;;;;3986276;29;20065;-51
2023/07/01 06:40:36;;;;;;;6.05;3.58;;;21.70;70.60;;;;;;3988196;29;20057;-51
2023/07/01 06:43:17;;;;;;;4.55;3.05;;;21.70;70.80;;;;;;4001540;29;20061;-51
2023/07/01 06:45:59;;;;;;;4.30;3.08;;;21.70;70.80;;;;;;3998620;29;20518;-53
2023/07/01 06:48:42;;;;;;;4.50;2.92;;;21.70;71.10;;;;;;3986451;29;20054;-51
2023/07/01 06:51:25;;;;;;;4.28;2.80;;;21.70;71.20;;;;;;3986793;29;20114;-50
2023/07/01 06:54:06;;;;;;;9.32;3.97;;;21.70;71.30;;;;;;3986758;29;20062;-47
2023/07/01 06:56:47;;;;;;;3.33;2.92;;;21.70;71.70;;;;;;3986411;29;20053;-47
2023/07/01 06:59:27;;;;;;;3.10;2.65;;;21.70;71.80;;;;;;3976309;29;20077;-50
2023/07/01 07:02:08;;;;;;;;;;;21.70;72.00;;;;;;3986087;29;20061;-46
2023/07/01 07:04:49;;;;;;;4.43;3.60;;;21.70;71.90;;;;;;3986485;29;19931;-52
2023/07/01 07:07:31;;;;;;;3.90;3.60;;;21.70;72.20;;;;;;3986376;29;20423;-51
2023/07/01 07:10:13;;;;;;;4.38;3.10;;;21.70;73.40;;;;;;3986483;29;20059;-53
2023/07/01 07:12:54;;;;;;;;;;;21.70;73.50;;;;;;3989932;29;20053;-49
2023/07/01 07:15:35;;;;;;;3.15;2.72;;;21.70;73.50;;;;;;3988016;29;20020;-53
2023/07/01 07:18:16;;;;;;;3.13;2.70;;;21.70;74.60;;;;;;3982995;29;20061;-49
2023/07/01 07:20:57;;;;;;;3.60;3.30;;;21.70;74.00;;;;;;3979875;29;20065;-49
2023/07/01 07:23:39;;;;;;;6.30;3.40;;;21.70;74.00;;;;;;3985382;29;20066;-52
2023/07/01 07:26:21;;;;;;;4.63;3.35;;;21.70;74.10;;;;;;3986161;29;20113;-50
2023/07/01 07:29:02;;;;;;;6.78;3.22;;;21.70;74.20;;;;;;3988983;29;20065;-50
2023/07/01 07:31:43;;;;;;;4.13;3.03;;;21.70;74.30;;;;;;3983392;29;20065;-49
2023/07/01 07:34:25;;;;;;;;;;;21.70;74.40;;;;;;3984694;29;20061;-49
2023/07/01 07:37:07;;;;;;;3.33;2.65;;;21.70;75.40;;;;;;3970943;29;19952;-51
2023/07/01 07:39:49;;;;;;;3.63;2.22;;;21.70;74.90;;;;;;3979209;29;20404;-52
2023/07/01 07:42:30;;;;;;;2.13;2.03;;;21.70;75.30;;;;;;3968477;29;20065;-50
2023/07/01 07:45:12;;;;;;;5.63;3.10;;;21.70;75.40;;;;;;3983369;29;20069;-49
2023/07/01 07:47:52;;;;;;;4.30;2.75;;;21.70;75.80;;;;;;3988671;29;20056;-51
2023/07/01 07:50:35;;;;;;;3.38;2.70;;;21.70;76.00;;;;;;3989175;29;20383;-50
2023/07/01 07:53:16;;;;;;;2.40;2.30;;;21.60;76.50;;;;;;3988891;29;20782;-49
2023/07/01 07:55:58;;;;;;;2.80;2.60;;;21.60;76.50;;;;;;3988824;29;20052;-49
2023/07/01 07:58:39;;;;;;;2.78;2.58;;;21.60;76.60;;;;;;3988659;29;20066;-53
2023/07/01 08:01:20;;;;;;;2.65;2.50;;;21.60;76.70;;;;;;3988702;29;20130;-52
2023/07/01 08:04:01;;;;;;;2.45;2.35;;;21.60;77.80;;;;;;3977549;29;20056;-50
2023/07/01 08:06:42;;;;;;;2.53;2.42;;;21.60;77.00;;;;;;3982503;29;20065;-48
2023/07/01 08:09:23;;;;;;;;;;;21.60;77.10;;;;;;3984181;29;20110;-50
2023/07/01 08:12:07;;;;;;;2.63;2.53;;;21.60;77.20;;;;;;3983023;29;19934;-47
2023/07/01 08:14:48;;;;;;;2.70;2.50;;;21.60;77.80;;;;;;3991680;29;20110;-49
2023/07/01 08:17:28;;;;;;;2.30;2.20;;;21.60;77.90;;;;;;3988335;29;20061;-50
2023/07/01 08:20:11;;;;;;;4.55;2.92;;;21.60;78.20;;;;;;3985487;29;20057;-52
2023/07/01 08:22:52;;;;;;;3.72;2.25;;;21.60;78.40;;;;;;3981463;29;20061;-50
2023/07/01 08:25:36;;;;;;;2.50;2.30;;;21.60;78.60;;;;;;3983538;29;20194;-48
2023/07/01 08:28:18;;;;;;;;;;;21.60;78.90;;;;;;3986459;29;20057;-49
2023/07/01 08:30:59;;;;;;;2.63;2.53;;;21.60;79.00;;;;;;3987714;29;19935;-48
2023/07/01 08:33:40;;;;;;;5.35;2.67;;;21.60;79.20;;;;;;3983468;29;20066;-49
2023/07/01 08:36:21;;;;;;;3.47;3.22;;;21.60;79.30;;;;;;3973511;29;20061;-49
2023/07/01 08:39:02;;;;;;;;;;;21.60;79.60;;;;;;3980694;29;20065;-48
2023/07/01 08:41:50;;;;;;;3.50;3.00;;;21.60;79.70;;;;;;3981951;29;19931;-50
2023/07/01 08:44:32;;;;;;;3.97;3.20;;;21.60;80.00;;;;;;3987955;29;20100;-51
2023/07/01 08:47:15;;;;;;;3.53;3.30;;;21.60;80.30;;;;;;3987599;29;20057;-53
2023/07/01 08:50:00;;;;;;;2.70;2.50;;;21.60;80.60;;;;;;3988005;29;20069;-53
2023/07/01 08:52:45;;;;;;;3.10;2.97;;;21.50;80.70;;;;;;3987726;29;20054;-48
2023/07/01 08:55:27;;;;;;;3.97;3.40;;;21.60;80.70;;;;;;3987952;29;20135;-49
2023/07/01 08:58:09;;;;;;;3.53;3.33;;;21.60;80.90;;;;;;3986718;29;20410;-53
2023/07/01 09:00:53;;;;;;;3.15;2.95;;;21.60;81.20;;;;;;3997741;29;20562;-53
2023/07/01 09:03:36;;;;;;;2.38;2.28;;;21.60;81.40;;;;;;3985464;29;20065;-54
2023/07/01 09:06:17;;;;;;;3.25;3.05;;;21.60;81.50;;;;;;3972883;29;20095;-53
2023/07/01 09:08:58;;;;;;;3.00;2.80;;;21.60;82.50;;;;;;3973109;29;20061;-52
2023/07/01 09:11:41;;;;;;;3.67;3.10;;;21.60;81.80;;;;;;3946627;29;20062;-54
2023/07/01 09:14:22;;;;;;;4.25;2.88;;;21.60;82.00;;;;;;3982277;29;20085;-53
2023/07/01 09:17:26;;;;;;;3.30;2.60;;;21.60;82.10;;;;;;3988993;29;20068;-52
2023/07/01 09:20:09;;;;;;;2.95;2.75;;;21.60;82.20;;;;;;3974153;29;20069;-53
2023/07/01 09:22:59;;;;;;;2.83;2.60;;;21.60;82.50;;;;;;3987886;29;20062;-51
2023/07/01 09:25:41;;;;;;;2.88;2.78;;;21.60;82.80;;;;;;3991365;29;20061;-51
2023/07/01 09:28:31;;;;;;;3.35;2.90;;;21.60;82.80;;;;;;3972080;29;20082;-51
2023/07/01 09:31:14;;;;;;;2.60;2.40;;;21.70;83.30;;;;;;3987153;29;20058;-52
2023/07/01 09:34:02;;;;;;;2.78;2.58;;;21.70;83.40;;;;;;3987699;29;20050;-50
2023/07/01 09:36:43;;;;;;;3.22;3.03;;;21.70;83.50;;;;;;3987641;29;20130;-51
2023/07/01 09:39:32;;;;;;;2.97;2.83;;;21.70;83.70;;;;;;3984837;29;20206;-51
2023/07/01 09:42:13;;;;;;;2.95;2.85;;;21.70;83.90;;;;;;3990323;29;20065;-51
2023/07/01 09:45:08;;;;;;;;;;;21.70;83.80;;;;;;3981476;29;20057;-51
2023/07/01 09:47:52;;;;;;;2.75;2.55;;;21.70;83.80;;;;;;3982820;29;19931;-51
2023/07/01 09:50:35;;;;;;;2.72;2.60;;;21.70;83.90;;;;;;3983458;29;20053;-52
2023/07/01 09:53:20;;;;;;;3.38;3.17;;;21.70;84.00;;;;;;3986498;29;20098;-50
2023/07/01 09:56:03;;;;;;;2.83;2.63;;;21.70;84.10;;;;;;3974057;29;20073;-51
2023/07/01 09:58:45;;;;;;;2.63;2.53;;;21.70;84.00;;;;;;3984739;29;20061;-49
2023/07/01 10:01:26;;;;;;;3.28;3.08;;;21.70;84.20;;;;;;3988895;29;20061;-52
2023/07/01 10:04:07;;;;;;;2.95;2.75;;;21.80;84.20;;;;;;3989614;29;20146;-51
2023/07/01 10:06:50;;;;;;;3.15;3.00;;;21.80;84.40;;;;;;3981120;29;20061;-50
2023/07/01 10:09:32;;;;;;;3.83;3.63;;;21.80;84.60;;;;;;3988031;29;20087;-59
2023/07/01 10:12:18;;;;;;;3.80;3.45;;;21.80;84.80;;;;;;3980461;29;20150;-54
2023/07/01 10:14:59;;;;;;;3.08;2.88;;;21.80;85.00;;;;;;3994660;29;20417;-51
2023/07/01 10:17:48;;;;;;;3.55;3.25;;;21.80;85.10;;;;;;3997155;29;20061;-52
2023/07/01 10:20:31;;;;;;;3.65;3.45;;;21.80;85.30;;;;;;3992052;29;20061;-50
2023/07/01 10:23:14;;;;;;;3.33;3.13;;;21.80;85.20;;;;;;3991099;29;20166;-59
2023/07/01 10:25:54;;;;;;;3.25;3.00;;;21.80;85.40;;;;;;3991745;29;20069;-59
2023/07/01 10:28:35;;;;;;;2.63;2.53;;;21.80;85.60;;;;;;3992167;29;20132;-59
2023/07/01 10:31:19;;;;;;;2.70;2.60;;;21.80;86.70;;;;;;3991203;29;20065;-59
2023/07/01 10:34:00;;;;;;;3.08;2.97;;;21.80;85.90;;;;;;3992942;29;20094;-59
2023/07/01 10:37:12;;;;;;;3.33;3.10;;;21.80;86.20;;;;;;3991918;29;20456;-59
2023/07/01 10:39:55;;;;;;;3.55;3.35;;;21.80;87.30;;;;;;3991815;29;20057;-58
2023/07/01 10:42:37;;;;;;;2.90;2.70;;;21.80;86.50;;;;;;3992011;29;20061;-59
2023/07/01 10:45:38;;;;;;;3.10;2.90;;;21.80;86.60;;;;;;3991527;29;20069;-48
2023/07/01 10:48:19;;;;;;;2.63;2.53;;;21.80;86.90;;;;;;3980452;29;20089;-49
2023/07/01 10:51:04;;;;;;;2.53;2.42;;;21.80;86.80;;;;;;4006752;29;20648;-51
2023/07/01 10:53:59;;;;;;;2.60;2.40;;;21.80;86.90;;;;;;4006621;29;20078;-49
2023/07/01 10:57:13;;;;;;;2.50;2.40;;;21.80;87.10;;;;;;3976618;29;20061;-49
2023/07/01 11:00:38;;;;;;;2.03;1.92;;;21.80;87.50;;;;;;3976489;29;20130;-48
2023/07/01 11:03:57;;;;;;;2.28;2.17;;;21.80;87.70;;;;;;3976457;29;20522;-59
2023/07/01 11:06:46;;;;;;;1.67;1.67;;;21.90;87.80;;;;;;3992288;29;20410;-55
2023/07/01 11:09:29;;;;;;;1.67;1.67;;;21.90;87.80;;;;;;3999237;29;20194;-50
2023/07/01 11:12:11;;;;;;;1.88;1.77;;;21.90;87.80;;;;;;3995202;29;20053;-47
2023/07/01 11:14:53;;;;;;;1.95;1.77;;;21.90;87.90;;;;;;3991163;29;20138;-49
2023/07/01 11:17:34;;;;;;;2.53;1.85;;;21.90;87.90;;;;;;3991274;29;20084;-47
2023/07/01 11:20:16;;;;;;;1.55;1.55;;;21.90;87.90;;;;;;3991019;29;20057;-55
2023/07/01 11:22:57;;;;;;;2.30;1.52;;;21.90;88.00;;;;;;3975868;29;20062;-56
2023/07/01 11:25:41;;;;;;;1.85;1.75;;;21.90;88.10;;;;;;3979364;29;20460;-56
2023/07/01 11:28:33;;;;;;;1.40;1.40;;;21.90;88.10;;;;;;3990210;29;20061;-54
2023/07/01 11:31:17;;;;;;;2.58;1.33;;;21.90;88.40;;;;;;3990914;29;20126;-53
2023/07/01 11:33:59;;;;;;;0.95;0.95;;;21.90;88.30;;;;;;3990658;29;20056;-55
2023/07/01 11:36:43;;;;;;;1.48;1.38;;;22.00;88.40;;;;;;3989792;29;20207;-53
2023/07/01 11:39:26;;;;;;;1.70;1.60;;;22.00;88.40;;;;;;3976191;29;20595;-55
2023/07/01 11:42:07;;;;;;;1.67;1.58;;;22.00;88.40;;;;;;3975313;29;20200;-56
2023/07/01 11:44:49;;;;;;;1.75;1.65;;;22.00;88.60;;;;;;3987063;29;20485;-54
2023/07/01 11:47:30;;;;;;;1.48;1.38;;;22.00;88.50;;;;;;3991204;29;20065;-49
2023/07/01 11:50:12;;;;;;;1.48;1.42;;;22.00;89.30;;;;;;3990934;29;20150;-57
2023/07/01 11:53:06;;;;;;;1.40;1.40;;;22.00;88.50;;;;;;3990203;29;20399;-57
2023/07/01 11:55:47;;;;;;;1.80;1.70;;;22.00;88.80;;;;;;3991174;29;20065;-56
2023/07/01 11:58:29;;;;;;;1.77;1.67;;;22.00;88.40;;;;;;3991228;29;20077;-57
2023/07/01 12:01:24;;;;;;;;;;;22.00;88.40;;;;;;3976161;29;20080;-56
2023/07/01 12:04:23;;;;;;;2.00;1.90;;;22.00;88.20;;;;;;3975925;29;19962;-57
2023/07/01 12:07:09;;;;;;;2.58;2.38;;;22.10;88.60;;;;;;3992889;29;20064;-57
2023/07/01 12:09:50;;;;;;;2.35;2.20;;;22.10;88.70;;;;;;4006026;29;20150;-57
2023/07/01 12:12:38;;;;;;;2.88;2.58;;;22.10;88.70;;;;;;3996012;29;20065;-57
2023/07/01 12:15:19;;;;;;;2.70;2.50;;;22.10;88.80;;;;;;3990896;29;20057;-56
2023/07/01 12:18:22;;;;;;;3.35;2.85;;;22.10;88.60;;;;;;3991168;29;20081;-56
2023/07/01 12:21:03;;;;;;;3.65;3.35;;;22.10;88.80;;;;;;3990793;29;20196;-57
2023/07/01 12:23:45;;;;;;;3.80;3.50;;;22.10;88.20;;;;;;4003950;29;20073;-46
2023/07/01 12:26:26;;;;;;;4.00;3.20;;;22.10;88.20;;;;;;4005868;29;20076;-49
2023/07/01 12:29:07;;;;;;;4.03;3.65;;;22.10;88.10;;;;;;4005663;29;20406;-46
2023/07/01 12:31:48;;;;;;;4.05;3.83;;;22.10;88.90;;;;;;3975816;29;20073;-46
2023/07/01 12:34:31;;;;;;;4.75;4.38;;;22.10;88.00;;;;;;3978016;29;20066;-46
2023/07/01 12:37:12;;;;;;;7.18;4.72;;;22.10;88.10;;;;;;3978445;29;20073;-46
2023/07/01 12:39:53;;;;;;;6.00;5.60;;;22.10;88.10;;;;;;4007648;29;20122;-47
2023/07/01 12:42:35;;;;;;;7.57;5.45;;;22.10;88.00;;;;;;3998838;29;20061;-48
2023/07/01 12:45:16;;;;;;;6.40;5.78;;;22.10;88.00;;;;;;3993271;29;20798;-45
2023/07/01 12:47:57;;;;;;;6.45;5.85;;;22.20;88.10;;;;;;3993307;29;20527;-57
2023/07/01 12:50:39;;;;;;;7.43;6.50;;;22.20;88.80;;;;;;3993070;29;20207;-57
2023/07/01 12:53:20;;;;;;;7.55;6.85;;;22.20;87.90;;;;;;3992667;29;20106;-57
2023/07/01 12:56:01;;;;;;;;;;;22.20;87.90;;;;;;3978784;29;20070;-56
2023/07/01 12:58:42;;;;;;;7.00;6.50;;;22.30;87.70;;;;;;3978349;29;19935;-47
2023/07/01 13:01:23;;;;;;;6.97;5.63;;;22.20;87.40;;;;;;3978125;29;20077;-57
2023/07/01 13:04:06;;;;;;;6.82;5.07;;;22.20;87.50;;;;;;3987016;29;20513;-56
2023/07/01 13:06:48;;;;;;;5.32;3.97;;;22.30;87.50;;;;;;3993139;29;20510;-56
2023/07/01 13:09:41;;;;;;;5.43;4.20;;;22.30;87.30;;;;;;3992983;29;20060;-57
2023/07/01 13:12:24;;;;;;;6.07;4.20;;;22.30;87.10;;;;;;3977974;29;20609;-57
2023/07/01 13:15:18;;;;;;;5.47;4.03;;;22.30;87.60;;;;;;3978157;29;20061;-46
2023/07/01 13:18:00;;;;;;;4.90;3.95;;;22.30;86.70;;;;;;3978038;29;20153;-48
2023/07/01 13:20:41;;;;;;;4.35;3.42;;;22.30;86.60;;;;;;3977903;29;20518;-57
2023/07/01 13:23:23;;;;;;;4.28;3.13;;;22.40;86.50;;;;;;3982983;29;20188;-56
2023/07/01 13:26:04;;;;;;;3.78;3.22;;;22.30;86.10;;;;;;3993881;29;20066;-56
2023/07/01 13:28:45;;;;;;;3.08;2.88;;;22.40;85.80;;;;;;3992730;29;20073;-55
2023/07/01 13:31:26;;;;;;;3.75;3.45;;;22.40;85.50;;;;;;3992935;29;20057;-56
2023/07/01 13:34:07;;;;;;;5.35;3.40;;;22.50;85.30;;;;;;3992404;29;20500;-56
2023/07/01 13:36:50;;;;;;;3.72;3.42;;;22.50;85.20;;;;;;3992906;29;20430;-47
2023/07/01 13:39:42;;;;;;;5.40;4.45;;;22.40;85.00;;;;;;4007382;29;20122;-47
2023/07/01 13:42:26;;;;;;;4.53;3.45;;;22.50;85.90;;;;;;4007790;29;20088;-46
2023/07/01 13:45:18;;;;;;;3.28;2.97;;;22.50;84.80;;;;;;3977363;29;20176;-46
2023/07/01 13:47:59;;;;;;;3.00;2.83;;;22.50;84.50;;;;;;3977536;29;20070;-47
2023/07/01 13:50:40;;;;;;;3.42;3.08;;;22.50;84.10;;;;;;3977608;29;20578;-45
2023/07/01 13:53:21;;;;;;;;;;;22.40;84.00;;;;;;3977908;29;20223;-46
2023/07/01 13:56:05;;;;;;;2.60;2.38;;;22.50;84.00;;;;;;3981000;29;20407;-47
2023/07/01 13:58:46;;;;;;;2.70;2.50;;;22.50;83.80;;;;;;3992451;29;20534;-55
2023/07/01 14:01:27;;;;;;;3.15;2.58;;;22.50;84.60;;;;;;3992208;29;20093;-47
2023/07/01 14:04:08;;;;;;;3.92;2.58;;;22.50;83.60;;;;;;3991959;29;20079;-46
2023/07/01 14:06:50;;;;;;;3.47;2.88;;;22.50;83.50;;;;;;3991495;29;20595;-46
2023/07/01 14:09:37;;;;;;;2.65;2.05;;;22.50;83.40;;;;;;3976919;29;20073;-46
2023/07/01 14:12:20;;;;;;;3.15;1.90;;;22.50;83.20;;;;;;3977125;29;20415;-48
2023/07/01 14:15:05;;;;;;;2.15;1.95;;;22.50;82.80;;;;;;3990776;29;20069;-49